• Join FlightAware (Why Join?)
  • Login
  • US Flag 
12:21AM EDT


 

Airport Tracker/Info


-or-


 

Live Flight TrackerFlight Track Log ✈ N589H ✈ 04-Feb-2014 ✈ KPIE - CYLS

Flight Track Log - Related Links

Times and Time Zones

All times are in EST time to prevent confusion due to time zone crossing. See the N589H flight status page for this flight to view local times or setup timezone preferences in your user account.

Time Position Orientation Groundspeed Altitude Reporting Facility
EST Latitude Longitude Course Direction KTS MPH feet Rate Location/Type
10:27PM 27.9000 -82.6833 221° Southwest 165 190 600  Level Tampa TRACON
10:27PM 27.8833 -82.7000 221° Southwest 177 204 1,200 1,500 Climbing Tampa TRACON
10:27PM 27.8833 -82.7000 221° Southwest 177 204 1,200 1,500 Level Tampa TRACON
10:28PM 27.8667 -82.7667 254° West 215 247 2,700 1,500 Climbing Tampa TRACON
10:28PM 27.8667 -82.7667 254° West 215 247 2,700 300 Level Tampa TRACON
10:29PM 27.9000 -82.8333 300° West 272 313 3,000 300 Climbing Tampa TRACON
10:29PM 27.9000 -82.8333 300° West 272 313 3,000 1,560 Level Tampa TRACON
10:30PM 27.9500 -82.8667 330° Northwest 267 307 4,600 1,560 Climbing Tampa TRACON
10:30PM 27.9500 -82.8667 330° Northwest 267 307 4,600 1,680 Level Tampa TRACON
10:31PM 28.0167 -82.8667 360° North 226 260 6,300 1,680 Climbing Tampa TRACON
10:31PM 28.0167 -82.8667 360° North 226 260 6,300 1,560 Level Tampa TRACON
10:33PM 28.1186 -82.8456 10° North 241 277 8,900 1,560 Climbing Jacksonville Center
10:33PM 28.1186 -82.8456 10° North 241 277 8,900 2,160 Level Jacksonville Center
10:34PM 28.1769 -82.8125 27° Northeast 236 272 11,100 2,160 Climbing Jacksonville Center
10:34PM 28.1769 -82.8125 27° Northeast 236 272 11,100 1,680 Level Jacksonville Center
10:35PM 28.2397 -82.7819 23° Northeast 236 272 12,800 1,680 Climbing Jacksonville Center
10:35PM 28.2397 -82.7819 23° Northeast 236 272 12,800 1,560 Level Jacksonville Center
10:36PM 28.3083 -82.7511 22° Northeast 242 278 14,400 1,560 Climbing Jacksonville Center
10:36PM 28.3083 -82.7511 22° Northeast 242 278 14,400 1,380 Level Jacksonville Center
10:37PM 28.3794 -82.7203 21° North 253 291 15,800 1,380 Climbing Jacksonville Center
10:37PM 28.3794 -82.7203 21° North 253 291 15,800 1,260 Level Jacksonville Center
10:38PM 28.4525 -82.7014 13° North 264 304 17,100 1,260 Climbing Jacksonville Center
10:38PM 28.4525 -82.7014 13° North 264 304 17,100 1,200 Level Jacksonville Center
10:39PM 28.5294 -82.7011 360° North 264 304 18,300 1,200 Climbing Jacksonville Center
10:39PM 28.5294 -82.7011 360° North 264 304 18,300 1,200 Level Jacksonville Center
10:40PM 28.6089 -82.6986 North 274 315 19,500 1,200 Climbing Jacksonville Center
10:40PM 28.6089 -82.6986 North 274 315 19,500 1,380 Level Jacksonville Center
10:41PM 28.6944 -82.6889 North 284 327 20,900 1,380 Climbing Jacksonville Center
10:41PM 28.6944 -82.6889 North 284 327 20,900 1,080 Level Jacksonville Center
10:42PM 28.7778 -82.6817 North 289 333 22,000 1,080 Climbing Jacksonville Center
10:42PM 28.7778 -82.6817 North 289 333 22,000 960 Level Jacksonville Center
10:43PM 28.8614 -82.6769 North 294 338 23,000 960 Climbing Jacksonville Center
10:43PM 28.8614 -82.6769 North 294 338 23,000 1,080 Level Jacksonville Center
10:44PM 28.9492 -82.6694 North 300 345 24,100 1,080 Climbing Jacksonville Center
10:44PM 28.9492 -82.6694 North 300 345 24,100 1,200 Level Jacksonville Center
10:45PM 29.0389 -82.6622 North 305 351 25,300 1,200 Climbing Jacksonville Center
10:45PM 29.0389 -82.6622 North 305 351 25,300 1,200 Level Jacksonville Center
10:46PM 29.1244 -82.6547 North 311 358 26,500 1,200 Climbing Jacksonville Center
10:46PM 29.1244 -82.6547 North 311 358 26,500 900 Level Jacksonville Center
10:47PM 29.2142 -82.6500 North 311 358 27,400 900 Climbing Jacksonville Center
10:47PM 29.2142 -82.6500 North 311 358 27,400 900 Level Jacksonville Center
10:48PM 29.3039 -82.6425 North 311 358 28,300 900 Climbing Jacksonville Center
10:48PM 29.3039 -82.6425 North 311 358 28,300 1,080 Level Jacksonville Center
10:49PM 29.3914 -82.6353 North 311 358 29,400 1,080 Climbing Jacksonville Center
10:49PM 29.3914 -82.6353 North 311 358 29,400 900 Level Jacksonville Center
10:50PM 29.4792 -82.6303 North 311 358 30,300 900 Climbing Jacksonville Center
10:50PM 29.4792 -82.6303 North 311 358 30,300 900 Level Jacksonville Center
10:51PM 29.5669 -82.6228 North 311 358 31,200 900 Climbing Jacksonville Center
10:51PM 29.5669 -82.6228 North 311 358 31,200 780 Level Jacksonville Center
10:52PM 29.6525 -82.6153 North 311 358 32,000 780 Climbing Jacksonville Center
10:52PM 29.6525 -82.6153 North 311 358 32,000 600 Level Jacksonville Center
10:53PM 29.7400 -82.6078 North 311 358 32,600 600 Climbing Jacksonville Center
10:53PM 29.7400 -82.6078 North 311 358 32,600 360 Level Jacksonville Center
10:54PM 29.8278 -82.6028 North 311 358 33,000 360 Climbing Jacksonville Center
10:54PM 29.8278 -82.6028 North 311 358 33,000  Level Jacksonville Center
10:55PM 29.9197 -82.5953 North 311 358 33,000  Level Jacksonville Center
10:55PM 29.9197 -82.5953 North 311 358 33,000  Level Jacksonville Center
10:56PM 30.0072 -82.5881 North 328 377 33,000  Level Jacksonville Center
10:56PM 30.0072 -82.5881 North 328 377 33,000  Level Jacksonville Center
10:57PM 30.1136 -82.5683 North 339 390 33,000  Level Jacksonville Center
10:58PM 30.2117 -82.5417 13° North 351 404 33,000  Level Jacksonville Center
10:59PM 30.3119 -82.5197 11° North 356 410 33,000  Level Jacksonville Center
11:00PM 30.4078 -82.4975 11° North 356 410 33,000  Level Jacksonville Center
11:01PM 30.5081 -82.4756 11° North 356 410 33,000  Level Jacksonville Center
11:02PM 30.6061 -82.4533 11° North 356 410 33,000  Level Jacksonville Center
11:03PM 30.7042 -82.4311 11° North 356 410 33,000  Level Jacksonville Center
11:04PM 30.8064 -82.4089 11° North 356 410 33,000  Level Jacksonville Center
11:05PM 30.9044 -82.3842 12° North 356 410 33,000  Level Jacksonville Center
11:06PM 31.0025 -82.3642 10° North 356 410 33,000  Level Jacksonville Center
11:07PM 31.1047 -82.3394 12° North 356 410 33,000  Level Jacksonville Center
11:08PM 31.2006 -82.3169 11° North 356 410 33,000  Level Jacksonville Center
11:09PM 31.3028 -82.2969 North 361 415 33,000  Level Jacksonville Center
11:10PM 31.4050 -82.2719 12° North 361 415 33,000  Level Jacksonville Center
11:11PM 31.5050 -82.2492 11° North 367 422 33,000  Level Jacksonville Center
11:12PM 31.6072 -82.2242 12° North 372 428 33,000  Level Jacksonville Center
11:13PM 31.7117 -82.1989 12° North 372 428 33,000  Level Jacksonville Center
11:14PM 31.8242 -82.1714 12° North 371 427 33,000  Level Jacksonville Center
11:15PM 31.9242 -82.1483 11° North 371 427 33,000  Level Jacksonville Center
11:16PM 32.0181 -82.1256 12° North 371 427 33,000  Level Jacksonville Center
11:17PM 32.1306 -82.0978 12° North 371 427 33,000  Level Jacksonville Center
11:18PM 32.2328 -82.0722 12° North 371 427 33,000  Level Jacksonville Center
11:19PM 32.3267 -82.0517 10° North 377 434 33,000  Level Jacksonville Center
11:20PM 32.4392 -82.0261 11° North 372 428 33,000  Level Jacksonville Center
11:21PM 32.5350 -82.0031 11° North 372 428 33,000  Level Jacksonville Center
11:22PM 32.6475 -81.9747 12° North 372 428 33,000  Level Jacksonville Center
11:23PM 32.7497 -81.9467 13° North 372 428 33,000  Level Jacksonville Center
11:24PM 32.8558 -81.9233 10° North 372 428 33,000  Level Jacksonville Center
11:25PM 32.9600 -81.8997 11° North 372 428 33,000  Level Jacksonville Center
11:26PM 33.0558 -81.8739 13° North 372 428 33,000  Level Jacksonville Center
11:27PM 33.1600 -81.8481 12° North 377 434 33,000  Level Jacksonville Center
11:28PM 33.2683 -81.8219 11° North 382 440 33,000  Level Jacksonville Center
11:29PM 33.3747 -81.7981 11° North 382 440 33,000  Level Jacksonville Center
11:30PM 33.4808 -81.7719 12° North 382 440 33,000  Level Jacksonville Center
11:31PM 33.5850 -81.7458 12° North 389 448 33,000  Level Jacksonville Center
11:32PM 33.7097 -81.7139 12° North 391 450 33,000  Level Atlanta Center
11:33PM 33.8178 -81.6883 11° North 400 460 33,000  Level Atlanta Center
11:34PM 33.9236 -81.6631 11° North 394 453 33,000  Level Atlanta Center
11:35PM 34.0317 -81.6350 12° North 394 453 33,000  Level Atlanta Center
11:36PM 34.1375 -81.6094 11° North 389 448 33,000  Level Atlanta Center
11:37PM 34.2433 -81.5836 11° North 389 448 33,000  Level Atlanta Center
11:38PM 34.3472 -81.5556 13° North 389 448 33,000  Level Atlanta Center
11:39PM 34.4450 -81.5325 11° North 389 448 33,000  Level Atlanta Center
11:40PM 34.5508 -81.5067 11° North 389 448 33,000  Level Atlanta Center
11:41PM 34.6669 -81.4781 11° North 394 453 33,000  Level Atlanta Center
11:42PM 34.7728 -81.4494 13° North 394 453 33,000  Level Atlanta Center
11:43PM 34.8808 -81.4283 North 389 448 33,000  Level Atlanta Center
11:44PM 34.9889 -81.3969 13° North 389 448 33,000  Level Atlanta Center
11:45PM 35.0944 -81.3683 13° North 389 448 33,000  Level Atlanta Center
11:46PM 35.2025 -81.3419 11° North 389 448 33,000  Level Atlanta Center
11:47PM 35.3064 -81.3156 12° North 389 448 33,000  Level Atlanta Center
11:48PM 35.4119 -81.2892 12° North 389 448 33,000  Level Atlanta Center
11:49PM 35.4972 -81.2658 13° North 389 448 33,000  Level Atlanta Center
11:50PM 35.6131 -81.2339 13° North 394 453 33,000  Level Atlanta Center
11:51PM 35.7169 -81.2072 12° North 389 448 33,000  Level Atlanta Center
11:52PM 35.8269 -81.1806 11° North 389 448 33,000  Level Atlanta Center
11:53PM 35.9325 -81.1511 13° North 389 448 33,000  Level Atlanta Center
11:54PM 36.0383 -81.1242 12° North 389 448 33,000  Level Atlanta Center
11:55PM 36.1461 -81.0947 12° North 389 448 33,000  Level Atlanta Center
11:56PM 36.2497 -81.0703 11° North 389 448 33,000  Level Atlanta Center
11:57PM 36.3594 -81.0403 12° North 389 448 33,000  Level Atlanta Center
11:58PM 36.4653 -81.0106 13° North 389 448 33,000  Level Atlanta Center
11:59PM 36.5728 -80.9806 13° North 389 448 33,000  Level Atlanta Center
12:00AM 36.6806 -80.9533 11° North 389 448 33,000  Level Atlanta Center
12:02AM 36.8539 -80.9056 12° North 386 444 33,000  Level Washington Center
12:03AM 36.9592 -80.8817 10° North 386 444 33,000  Level Washington Center
12:04AM 37.0753 -80.8506 12° North 391 450 33,000  Level Washington Center
12:05AM 37.1850 -80.8217 12° North 396 456 33,000  Level Washington Center
12:06AM 37.2928 -80.7950 11° North 396 456 33,000  Level Washington Center
12:07AM 37.4006 -80.7631 13° North 396 456 33,000  Level Washington Center
12:08AM 37.5081 -80.7364 11° North 396 456 33,000  Level Washington Center
12:09AM 37.6050 -80.7117 11° North 396 456 33,000  Level Washington Center
12:10AM 37.7128 -80.6819 12° North 396 456 33,000  Level Washington Center
12:11AM 37.8203 -80.6525 12° North 396 456 33,000  Level Washington Center
12:12AM 37.9300 -80.6231 12° North 396 456 33,000  Level Washington Center
12:13AM 38.0378 -80.5908 13° North 396 456 33,000  Level Washington Center
12:14AM 38.1558 -80.5589 12° North 396 456 33,000  Level Washington Center
12:15AM 38.2656 -80.5292 12° North 396 456 33,000  Level Washington Center
12:16AM 38.3753 -80.4994 12° North 396 456 33,000  Level Washington Center
12:17AM 38.4831 -80.4669 13° North 396 456 33,100 60 Climbing Washington Center
12:19AM 38.7256 -80.3953 13° North 404 465 33,200 240 Climbing Cleveland Center
12:20AM 38.8333 -80.3636 13° North 400 460 33,900 660 Climbing Cleveland Center
12:21AM 38.9381 -80.3358 12° North 389 448 34,600 540 Climbing Cleveland Center
12:22AM 39.0425 -80.3053 13° North 386 444 35,000 180 Climbing Cleveland Center
12:23AM 39.1506 -80.2742 13° North 393 452 35,000  Level Cleveland Center
12:24AM 39.2606 -80.2425 13° North 402 463 35,000  Level Cleveland Center
12:25AM 39.3708 -80.2106 13° North 406 467 35,000  Level Cleveland Center
12:26AM 39.4825 -80.1800 12° North 410 472 35,000  Level Cleveland Center
12:27AM 39.5956 -80.1514 11° North 413 475 35,000  Level Cleveland Center
12:28AM 39.7081 -80.1164 13° North 416 479 35,000  Level Cleveland Center
12:29AM 39.8222 -80.0861 12° North 421 484 35,000  Level Cleveland Center
12:30AM 39.9358 -80.0511 13° North 420 483 35,000  Level Cleveland Center
12:31AM 40.0500 -80.0183 12° North 421 484 35,000  Level Cleveland Center
12:32AM 40.1639 -79.9847 13° North 422 486 35,000  Level Cleveland Center
12:33AM 40.2772 -79.9519 12° North 422 486 35,000  Level Cleveland Center
12:34AM 40.4122 -79.9103 13° North 424 488 35,000  Level Cleveland Center
12:35AM 40.5258 -79.8775 12° North 424 488 35,000  Level Cleveland Center
12:36AM 40.6406 -79.8436 13° North 425 489 35,000  Level Cleveland Center
12:37AM 40.7564 -79.8089 13° North 427 491 35,000  Level Cleveland Center
12:38AM 40.8719 -79.7739 13° North 428 493 35,000  Level Cleveland Center
12:39AM 40.9881 -79.7400 12° North 429 494 35,000  Level Cleveland Center
12:40AM 41.1033 -79.7033 13° North 427 491 35,000  Level Cleveland Center
12:41AM 41.2297 -79.6656 13° North 431 496 35,000  Level Cleveland Center
12:42AM 41.3369 -79.6342 12° North 430 495 35,000  Level Cleveland Center
12:43AM 41.4631 -79.5939 13° North 431 496 35,000  Level Cleveland Center
12:44AM 41.5781 -79.5794 North 425 489 35,000  Level Cleveland Center
12:45AM 41.6914 -79.5797 360° North 410 472 35,000 -420 Level Cleveland Center
12:46AM 41.8078 -79.5814 359° North 417 480 34,200 -480 Descending Cleveland Center
12:47AM 41.9283 -79.5792 North 431 496 34,100 -480 Descending Cleveland Center
12:48AM 42.0522 -79.5772 North 443 510 33,300 -840 Descending Cleveland Center
12:49AM 42.1761 -79.5747 North 446 513 32,500 -660 Descending Cleveland Center
12:50AM 42.2989 -79.5761 360° North 443 510 32,000 -300 Descending Cleveland Center
12:51AM 42.4194 -79.5739 North 436 502 32,000  Level Cleveland Center
12:52AM 42.5242 -79.5758 359° North 433 498 32,000  Level Cleveland Center
12:53AM 42.6444 -79.5753 360° North 430 495 32,000  Level Cleveland Center
12:54AM 42.7636 -79.5731 North 428 493 32,000  Level Cleveland Center
12:55AM 42.8819 -79.5706 North 429 494 32,000  Level Cleveland Center
12:56AM 43.0028 -79.5708 360° North 429 494 32,000 -600 Level Cleveland Center
12:57AM 43.1258 -79.5706 360° North 440 506 30,900 -1,260 Descending Cleveland Center
12:58AM 43.2517 -79.5697 360° North 452 520 29,500 -1,380 Descending Cleveland Center
12:59AM 43.3742 -79.5683 360° North 442 509 28,200 -1,620 Descending Cleveland Center
01:00AM 43.4928 -79.5669 360° North 431 496 26,300 -2,160 Descending Cleveland Center
01:01AM 43.6031 -79.5667 360° North 402 463 23,900 -2,520 Descending Cleveland Center
01:02AM 43.7500 -79.5333 North 360 414 20,400 -2,580 Descending Toronto Center
01:03AM 43.8333 -79.5333 360° North 340 391 17,900 -2,280 Descending Toronto Center
01:04AM 43.9333 -79.5333 360° North 330 380 15,900 -2,340 Descending Toronto Center
01:05AM 44.0167 -79.5667 344° North 320 368 13,300 -2,460 Descending Toronto Center
01:06AM 44.0833 -79.6167 332° Northwest 290 334 11,000 -2,400 Descending Toronto Center
01:07AM 44.1667 -79.6333 352° North 270 311 8,500 -2,400 Descending Toronto Center
01:08AM 44.2333 -79.6833 332° Northwest 260 299 6,200 -1,920 Descending Toronto Center
01:09AM 44.2833 -79.7000 347° North 240 276 4,700 -1,140 Descending Toronto Center
01:10AM 44.3500 -79.7500 332° Northwest 230 265 4,000 -420 Descending Toronto Center
01:11AM 44.4000 -79.7667 347° North 240 276 3,900 -420 Descending Toronto Center
01:12AM 44.4667 -79.7667 360° North 210 242 3,200 -720 Descending Toronto Center
01:15AM 44.4793 -79.6030 84° East  Level FlightAware Approximate
01:22AM 44.4833 -79.5500 62° Northeast  Level FlightAware Approximate
01:23AM 44.4853 -79.5556 62° Northeast  Level Estimated
01:24AM 44.4833 -79.5500 62° Northeast  Level FlightAware Approximate
01:25AM 44.4853 -79.5556 62° Northeast  Level Estimated